sensor_id;sensor_type;location;lat;lon;timestamp;P1;durP1;ratioP1;P2;durP2;ratioP2
25913;SDS011;13718;50.922;5.346;2023-07-13T00:00:24;4.97;;;1.38;;
25913;SDS011;13718;50.922;5.346;2023-07-13T00:02:50;10.27;;;1.73;;
25913;SDS011;13718;50.922;5.346;2023-07-13T00:05:18;7.35;;;1.35;;
25913;SDS011;13718;50.922;5.346;2023-07-13T00:07:45;9.10;;;2.03;;
25913;SDS011;13718;50.922;5.346;2023-07-13T00:10:11;8.55;;;1.60;;
25913;SDS011;13718;50.922;5.346;2023-07-13T00:12:37;9.18;;;1.30;;
25913;SDS011;13718;50.922;5.346;2023-07-13T00:15:05;8.07;;;1.73;;
25913;SDS011;13718;50.922;5.346;2023-07-13T00:17:36;8.68;;;1.27;;
25913;SDS011;13718;50.922;5.346;2023-07-13T00:20:03;10.43;;;2.33;;
25913;SDS011;13718;50.922;5.346;2023-07-13T00:22:30;6.18;;;1.60;;
25913;SDS011;13718;50.922;5.346;2023-07-13T00:24:55;5.75;;;1.45;;
25913;SDS011;13718;50.922;5.346;2023-07-13T00:27:21;5.45;;;1.50;;
25913;SDS011;13718;50.922;5.346;2023-07-13T00:29:47;7.25;;;1.45;;
25913;SDS011;13718;50.922;5.346;2023-07-13T00:32:13;9.57;;;2.00;;
25913;SDS011;13718;50.922;5.346;2023-07-13T00:34:39;7.80;;;1.60;;
25913;SDS011;13718;50.922;5.346;2023-07-13T00:37:05;6.80;;;1.58;;
25913;SDS011;13718;50.922;5.346;2023-07-13T00:39:32;6.55;;;1.58;;
25913;SDS011;13718;50.922;5.346;2023-07-13T00:41:59;8.07;;;2.05;;
25913;SDS011;13718;50.922;5.346;2023-07-13T00:44:25;8.30;;;2.03;;
25913;SDS011;13718;50.922;5.346;2023-07-13T00:46:51;13.82;;;2.03;;
25913;SDS011;13718;50.922;5.346;2023-07-13T00:49:18;8.45;;;1.52;;
25913;SDS011;13718;50.922;5.346;2023-07-13T00:54:19;10.65;;;2.10;;
25913;SDS011;13718;50.922;5.346;2023-07-13T00:56:49;14.43;;;1.95;;
25913;SDS011;13718;50.922;5.346;2023-07-13T00:59:17;11.85;;;1.98;;
25913;SDS011;13718;50.922;5.346;2023-07-13T01:01:45;8.57;;;1.88;;
25913;SDS011;13718;50.922;5.346;2023-07-13T01:04:11;8.23;;;1.63;;
25913;SDS011;13718;50.922;5.346;2023-07-13T01:06:38;6.65;;;1.50;;
25913;SDS011;13718;50.922;5.346;2023-07-13T01:09:05;7.93;;;1.70;;
25913;SDS011;13718;50.922;5.346;2023-07-13T01:11:33;9.65;;;1.83;;
25913;SDS011;13718;50.922;5.346;2023-07-13T01:14:00;6.47;;;1.80;;
25913;SDS011;13718;50.922;5.346;2023-07-13T01:16:30;8.10;;;1.88;;
25913;SDS011;13718;50.922;5.346;2023-07-13T01:18:57;6.93;;;1.85;;
25913;SDS011;13718;50.922;5.346;2023-07-13T01:21:24;8.07;;;2.25;;
25913;SDS011;13718;50.922;5.346;2023-07-13T01:23:51;11.40;;;2.28;;
25913;SDS011;13718;50.922;5.346;2023-07-13T01:26:17;13.63;;;2.53;;
25913;SDS011;13718;50.922;5.346;2023-07-13T01:28:43;9.43;;;2.08;;
25913;SDS011;13718;50.922;5.346;2023-07-13T01:31:09;8.52;;;2.10;;
25913;SDS011;13718;50.922;5.346;2023-07-13T01:33:36;11.75;;;2.38;;
25913;SDS011;13718;50.922;5.346;2023-07-13T01:36:04;9.23;;;1.90;;
25913;SDS011;13718;50.922;5.346;2023-07-13T01:38:31;8.48;;;1.80;;
25913;SDS011;13718;50.922;5.346;2023-07-13T01:40:58;10.45;;;2.50;;
25913;SDS011;13718;50.922;5.346;2023-07-13T01:43:27;13.82;;;2.38;;
25913;SDS011;13718;50.922;5.346;2023-07-13T01:45:53;8.45;;;1.75;;
25913;SDS011;13718;50.922;5.346;2023-07-13T01:48:18;8.75;;;2.08;;
25913;SDS011;13718;50.922;5.346;2023-07-13T01:50:45;10.98;;;2.50;;
25913;SDS011;13718;50.922;5.346;2023-07-13T01:53:13;12.80;;;2.20;;
25913;SDS011;13718;50.922;5.346;2023-07-13T01:55:38;9.32;;;2.33;;
25913;SDS011;13718;50.922;5.346;2023-07-13T01:58:04;9.38;;;2.15;;
25913;SDS011;13718;50.922;5.346;2023-07-13T02:00:31;12.43;;;2.42;;
25913;SDS011;13718;50.922;5.346;2023-07-13T02:02:57;11.38;;;2.30;;
25913;SDS011;13718;50.922;5.346;2023-07-13T02:05:23;7.95;;;2.03;;
25913;SDS011;13718;50.922;5.346;2023-07-13T02:07:49;13.02;;;2.45;;
25913;SDS011;13718;50.922;5.346;2023-07-13T02:10:15;9.75;;;2.42;;
25913;SDS011;13718;50.922;5.346;2023-07-13T02:12:41;9.88;;;2.55;;
25913;SDS011;13718;50.922;5.346;2023-07-13T02:15:07;9.38;;;2.10;;
25913;SDS011;13718;50.922;5.346;2023-07-13T02:17:34;10.43;;;2.10;;
25913;SDS011;13718;50.922;5.346;2023-07-13T02:20:01;8.45;;;2.13;;
25913;SDS011;13718;50.922;5.346;2023-07-13T02:22:28;11.18;;;2.20;;
25913;SDS011;13718;50.922;5.346;2023-07-13T02:24:54;11.00;;;2.50;;
25913;SDS011;13718;50.922;5.346;2023-07-13T02:27:19;14.65;;;2.75;;
25913;SDS011;13718;50.922;5.346;2023-07-13T02:29:45;12.27;;;2.35;;
25913;SDS011;13718;50.922;5.346;2023-07-13T02:32:11;10.70;;;2.63;;
25913;SDS011;13718;50.922;5.346;2023-07-13T02:34:37;12.05;;;2.50;;
25913;SDS011;13718;50.922;5.346;2023-07-13T02:37:03;14.65;;;2.45;;
25913;SDS011;13718;50.922;5.346;2023-07-13T02:39:28;13.40;;;2.67;;
25913;SDS011;13718;50.922;5.346;2023-07-13T02:41:54;10.20;;;2.50;;
25913;SDS011;13718;50.922;5.346;2023-07-13T02:44:20;11.63;;;2.40;;
25913;SDS011;13718;50.922;5.346;2023-07-13T02:46:46;12.38;;;2.50;;
25913;SDS011;13718;50.922;5.346;2023-07-13T02:49:11;11.23;;;2.40;;
25913;SDS011;13718;50.922;5.346;2023-07-13T02:51:37;13.68;;;2.70;;
25913;SDS011;13718;50.922;5.346;2023-07-13T02:54:03;12.18;;;2.50;;
25913;SDS011;13718;50.922;5.346;2023-07-13T02:56:30;10.60;;;2.45;;
25913;SDS011;13718;50.922;5.346;2023-07-13T02:58:57;14.70;;;2.50;;
25913;SDS011;13718;50.922;5.346;2023-07-13T03:01:23;13.43;;;2.53;;
25913;SDS011;13718;50.922;5.346;2023-07-13T03:03:49;12.40;;;2.90;;
25913;SDS011;13718;50.922;5.346;2023-07-13T03:06:16;10.55;;;2.35;;
25913;SDS011;13718;50.922;5.346;2023-07-13T03:08:43;14.43;;;3.00;;
25913;SDS011;13718;50.922;5.346;2023-07-13T03:11:14;16.88;;;3.10;;
25913;SDS011;13718;50.922;5.346;2023-07-13T03:13:42;15.40;;;2.88;;
25913;SDS011;13718;50.922;5.346;2023-07-13T03:16:09;19.08;;;2.70;;
25913;SDS011;13718;50.922;5.346;2023-07-13T03:18:35;13.32;;;2.60;;
25913;SDS011;13718;50.922;5.346;2023-07-13T03:21:02;14.75;;;3.28;;
25913;SDS011;13718;50.922;5.346;2023-07-13T03:23:28;14.00;;;2.45;;
25913;SDS011;13718;50.922;5.346;2023-07-13T03:26:04;10.15;;;2.58;;
25913;SDS011;13718;50.922;5.346;2023-07-13T03:28:34;18.35;;;3.22;;
25913;SDS011;13718;50.922;5.346;2023-07-13T03:31:04;18.33;;;3.20;;
25913;SDS011;13718;50.922;5.346;2023-07-13T03:33:35;15.50;;;2.90;;
25913;SDS011;13718;50.922;5.346;2023-07-13T03:36:02;9.07;;;2.88;;
25913;SDS011;13718;50.922;5.346;2023-07-13T03:38:29;14.50;;;2.80;;
25913;SDS011;13718;50.922;5.346;2023-07-13T03:40:54;12.20;;;3.15;;
25913;SDS011;13718;50.922;5.346;2023-07-13T03:43:20;13.85;;;3.42;;
25913;SDS011;13718;50.922;5.346;2023-07-13T03:45:46;8.73;;;2.83;;
25913;SDS011;13718;50.922;5.346;2023-07-13T03:48:12;18.10;;;3.42;;
25913;SDS011;13718;50.922;5.346;2023-07-13T03:50:38;16.55;;;3.22;;
25913;SDS011;13718;50.922;5.346;2023-07-13T03:53:05;17.85;;;3.20;;
25913;SDS011;13718;50.922;5.346;2023-07-13T03:55:30;12.75;;;3.25;;
25913;SDS011;13718;50.922;5.346;2023-07-13T03:58:00;15.82;;;4.03;;
25913;SDS011;13718;50.922;5.346;2023-07-13T04:00:46;13.50;;;2.88;;
25913;SDS011;13718;50.922;5.346;2023-07-13T04:03:11;10.55;;;2.80;;
25913;SDS011;13718;50.922;5.346;2023-07-13T04:05:37;14.05;;;3.33;;
25913;SDS011;13718;50.922;5.346;2023-07-13T04:08:05;15.52;;;3.50;;
25913;SDS011;13718;50.922;5.346;2023-07-13T04:10:31;13.07;;;3.05;;
25913;SDS011;13718;50.922;5.346;2023-07-13T04:12:57;14.73;;;2.95;;
25913;SDS011;13718;50.922;5.346;2023-07-13T04:15:23;17.15;;;3.40;;
25913;SDS011;13718;50.922;5.346;2023-07-13T04:17:48;18.48;;;4.03;;
25913;SDS011;13718;50.922;5.346;2023-07-13T04:20:14;13.07;;;3.22;;
25913;SDS011;13718;50.922;5.346;2023-07-13T04:22:40;13.38;;;3.55;;
25913;SDS011;13718;50.922;5.346;2023-07-13T04:25:05;14.90;;;3.45;;
25913;SDS011;13718;50.922;5.346;2023-07-13T04:27:31;15.10;;;3.22;;
25913;SDS011;13718;50.922;5.346;2023-07-13T04:29:57;13.70;;;3.10;;
25913;SDS011;13718;50.922;5.346;2023-07-13T04:32:23;14.60;;;3.38;;
25913;SDS011;13718;50.922;5.346;2023-07-13T04:34:48;19.17;;;3.50;;
25913;SDS011;13718;50.922;5.346;2023-07-13T04:37:20;16.10;;;3.30;;
25913;SDS011;13718;50.922;5.346;2023-07-13T04:39:45;13.98;;;3.22;;
25913;SDS011;13718;50.922;5.346;2023-07-13T04:42:11;21.50;;;4.13;;
25913;SDS011;13718;50.922;5.346;2023-07-13T04:44:37;19.88;;;3.40;;
25913;SDS011;13718;50.922;5.346;2023-07-13T04:47:03;16.60;;;3.55;;
25913;SDS011;13718;50.922;5.346;2023-07-13T04:49:29;15.23;;;3.75;;
25913;SDS011;13718;50.922;5.346;2023-07-13T04:51:55;17.33;;;3.70;;
25913;SDS011;13718;50.922;5.346;2023-07-13T04:54:21;12.60;;;3.10;;
25913;SDS011;13718;50.922;5.346;2023-07-13T04:56:47;15.15;;;3.67;;
25913;SDS011;13718;50.922;5.346;2023-07-13T04:59:12;26.20;;;3.90;;
25913;SDS011;13718;50.922;5.346;2023-07-13T05:01:38;14.48;;;2.72;;
25913;SDS011;13718;50.922;5.346;2023-07-13T05:04:05;13.88;;;3.20;;
25913;SDS011;13718;50.922;5.346;2023-07-13T05:06:31;11.40;;;2.60;;
25913;SDS011;13718;50.922;5.346;2023-07-13T05:08:57;14.65;;;3.13;;
25913;SDS011;13718;50.922;5.346;2023-07-13T05:11:23;20.13;;;3.70;;
25913;SDS011;13718;50.922;5.346;2023-07-13T05:13:49;17.88;;;3.47;;
25913;SDS011;13718;50.922;5.346;2023-07-13T05:16:14;15.48;;;3.55;;
25913;SDS011;13718;50.922;5.346;2023-07-13T05:18:40;18.73;;;3.47;;
25913;SDS011;13718;50.922;5.346;2023-07-13T05:21:07;20.85;;;3.55;;
25913;SDS011;13718;50.922;5.346;2023-07-13T05:23:35;16.77;;;3.45;;
25913;SDS011;13718;50.922;5.346;2023-07-13T05:26:02;13.55;;;2.75;;
25913;SDS011;13718;50.922;5.346;2023-07-13T05:28:29;15.75;;;3.40;;
25913;SDS011;13718;50.922;5.346;2023-07-13T05:30:58;22.13;;;3.45;;
25913;SDS011;13718;50.922;5.346;2023-07-13T05:33:24;15.77;;;3.13;;
25913;SDS011;13718;50.922;5.346;2023-07-13T05:35:51;17.02;;;2.78;;
25913;SDS011;13718;50.922;5.346;2023-07-13T05:38:16;15.77;;;3.67;;
25913;SDS011;13718;50.922;5.346;2023-07-13T05:40:43;16.60;;;3.55;;
25913;SDS011;13718;50.922;5.346;2023-07-13T05:43:09;17.88;;;3.63;;
25913;SDS011;13718;50.922;5.346;2023-07-13T05:45:35;18.95;;;3.75;;
25913;SDS011;13718;50.922;5.346;2023-07-13T05:48:01;13.27;;;3.00;;
25913;SDS011;13718;50.922;5.346;2023-07-13T05:50:27;11.15;;;3.08;;
25913;SDS011;13718;50.922;5.346;2023-07-13T05:52:52;16.02;;;3.15;;
25913;SDS011;13718;50.922;5.346;2023-07-13T05:55:19;18.77;;;3.85;;
25913;SDS011;13718;50.922;5.346;2023-07-13T05:57:45;18.52;;;3.28;;
25913;SDS011;13718;50.922;5.346;2023-07-13T06:00:11;16.83;;;3.00;;
25913;SDS011;13718;50.922;5.346;2023-07-13T06:02:37;22.08;;;3.85;;
25913;SDS011;13718;50.922;5.346;2023-07-13T06:05:03;21.08;;;3.58;;
25913;SDS011;13718;50.922;5.346;2023-07-13T06:07:30;20.83;;;3.25;;
25913;SDS011;13718;50.922;5.346;2023-07-13T06:09:56;20.55;;;3.40;;
25913;SDS011;13718;50.922;5.346;2023-07-13T06:12:21;20.20;;;3.55;;
25913;SDS011;13718;50.922;5.346;2023-07-13T06:14:47;25.35;;;3.75;;
25913;SDS011;13718;50.922;5.346;2023-07-13T06:17:13;15.38;;;3.30;;
25913;SDS011;13718;50.922;5.346;2023-07-13T06:19:38;12.45;;;3.22;;
25913;SDS011;13718;50.922;5.346;2023-07-13T06:22:04;21.98;;;3.72;;
25913;SDS011;13718;50.922;5.346;2023-07-13T06:24:30;18.95;;;3.88;;
25913;SDS011;13718;50.922;5.346;2023-07-13T06:26:56;17.77;;;3.88;;
25913;SDS011;13718;50.922;5.346;2023-07-13T06:29:21;18.40;;;3.75;;
25913;SDS011;13718;50.922;5.346;2023-07-13T06:31:47;14.68;;;3.38;;
25913;SDS011;13718;50.922;5.346;2023-07-13T06:34:12;23.90;;;4.25;;
25913;SDS011;13718;50.922;5.346;2023-07-13T06:36:38;13.30;;;3.47;;
25913;SDS011;13718;50.922;5.346;2023-07-13T06:39:04;19.83;;;3.92;;
25913;SDS011;13718;50.922;5.346;2023-07-13T06:41:31;16.77;;;3.28;;
25913;SDS011;13718;50.922;5.346;2023-07-13T06:43:58;16.80;;;2.88;;
25913;SDS011;13718;50.922;5.346;2023-07-13T06:46:23;26.45;;;4.00;;
25913;SDS011;13718;50.922;5.346;2023-07-13T06:48:49;14.70;;;3.42;;
25913;SDS011;13718;50.922;5.346;2023-07-13T06:51:15;14.70;;;3.50;;
25913;SDS011;13718;50.922;5.346;2023-07-13T06:53:41;19.83;;;3.78;;
25913;SDS011;13718;50.922;5.346;2023-07-13T06:56:08;18.95;;;3.28;;
25913;SDS011;13718;50.922;5.346;2023-07-13T06:58:35;17.33;;;3.22;;
25913;SDS011;13718;50.922;5.346;2023-07-13T07:01:01;20.38;;;3.22;;
25913;SDS011;13718;50.922;5.346;2023-07-13T07:03:28;16.13;;;3.47;;
25913;SDS011;13718;50.922;5.346;2023-07-13T07:05:53;18.02;;;3.17;;
25913;SDS011;13718;50.922;5.346;2023-07-13T07:08:24;18.23;;;3.22;;
25913;SDS011;13718;50.922;5.346;2023-07-13T07:10:50;13.70;;;3.05;;
25913;SDS011;13718;50.922;5.346;2023-07-13T07:13:18;16.60;;;3.70;;
25913;SDS011;13718;50.922;5.346;2023-07-13T07:15:44;15.15;;;3.20;;
25913;SDS011;13718;50.922;5.346;2023-07-13T07:18:10;12.45;;;3.05;;
25913;SDS011;13718;50.922;5.346;2023-07-13T07:20:36;16.00;;;3.25;;
25913;SDS011;13718;50.922;5.346;2023-07-13T07:23:01;17.27;;;3.28;;
25913;SDS011;13718;50.922;5.346;2023-07-13T07:25:27;17.52;;;3.70;;
25913;SDS011;13718;50.922;5.346;2023-07-13T07:27:56;15.30;;;3.10;;
25913;SDS011;13718;50.922;5.346;2023-07-13T07:30:23;15.20;;;3.30;;
25913;SDS011;13718;50.922;5.346;2023-07-13T07:32:48;17.73;;;3.60;;
25913;SDS011;13718;50.922;5.346;2023-07-13T07:35:14;15.85;;;3.03;;
25913;SDS011;13718;50.922;5.346;2023-07-13T07:37:40;12.88;;;2.95;;
25913;SDS011;13718;50.922;5.346;2023-07-13T07:40:05;15.15;;;3.05;;
25913;SDS011;13718;50.922;5.346;2023-07-13T07:42:33;15.48;;;3.47;;
25913;SDS011;13718;50.922;5.346;2023-07-13T07:44:59;14.20;;;2.95;;
25913;SDS011;13718;50.922;5.346;2023-07-13T07:47:26;17.88;;;3.20;;
25913;SDS011;13718;50.922;5.346;2023-07-13T07:49:51;16.98;;;3.17;;
25913;SDS011;13718;50.922;5.346;2023-07-13T07:52:17;13.73;;;2.92;;
25913;SDS011;13718;50.922;5.346;2023-07-13T07:54:43;15.90;;;3.30;;
25913;SDS011;13718;50.922;5.346;2023-07-13T07:57:09;13.80;;;3.40;;
25913;SDS011;13718;50.922;5.346;2023-07-13T07:59:35;13.57;;;2.90;;
25913;SDS011;13718;50.922;5.346;2023-07-13T08:02:02;18.45;;;3.28;;
25913;SDS011;13718;50.922;5.346;2023-07-13T08:04:28;13.70;;;2.92;;
25913;SDS011;13718;50.922;5.346;2023-07-13T08:06:54;19.52;;;3.08;;
25913;SDS011;13718;50.922;5.346;2023-07-13T08:09:21;17.05;;;3.17;;
25913;SDS011;13718;50.922;5.346;2023-07-13T08:11:47;19.58;;;3.00;;
25913;SDS011;13718;50.922;5.346;2023-07-13T08:14:13;18.73;;;2.80;;
25913;SDS011;13718;50.922;5.346;2023-07-13T08:16:39;12.88;;;2.75;;
25913;SDS011;13718;50.922;5.346;2023-07-13T08:19:05;14.05;;;3.00;;
25913;SDS011;13718;50.922;5.346;2023-07-13T08:21:31;17.02;;;3.65;;
25913;SDS011;13718;50.922;5.346;2023-07-13T08:23:57;15.65;;;2.70;;
25913;SDS011;13718;50.922;5.346;2023-07-13T08:26:22;13.23;;;2.90;;
25913;SDS011;13718;50.922;5.346;2023-07-13T08:28:48;15.90;;;2.92;;
25913;SDS011;13718;50.922;5.346;2023-07-13T08:31:14;13.85;;;3.20;;
25913;SDS011;13718;50.922;5.346;2023-07-13T08:33:40;16.50;;;3.20;;
25913;SDS011;13718;50.922;5.346;2023-07-13T08:36:06;14.30;;;3.47;;
25913;SDS011;13718;50.922;5.346;2023-07-13T08:38:32;12.80;;;2.95;;
25913;SDS011;13718;50.922;5.346;2023-07-13T08:40:58;14.68;;;3.15;;
25913;SDS011;13718;50.922;5.346;2023-07-13T08:43:34;11.55;;;2.80;;
25913;SDS011;13718;50.922;5.346;2023-07-13T08:46:13;13.75;;;2.60;;
25913;SDS011;13718;50.922;5.346;2023-07-13T08:48:49;14.40;;;2.78;;
25913;SDS011;13718;50.922;5.346;2023-07-13T08:56:23;12.90;;;2.60;;
25913;SDS011;13718;50.922;5.346;2023-07-13T08:58:57;19.88;;;2.97;;
25913;SDS011;13718;50.922;5.346;2023-07-13T09:04:19;11.68;;;2.85;;
25913;SDS011;13718;50.922;5.346;2023-07-13T09:12:02;13.63;;;2.33;;
25913;SDS011;13718;50.922;5.346;2023-07-13T09:14:50;12.32;;;2.45;;
25913;SDS011;13718;50.922;5.346;2023-07-13T09:17:27;12.02;;;2.33;;
25913;SDS011;13718;50.922;5.346;2023-07-13T09:20:28;9.07;;;2.40;;
25913;SDS011;13718;50.922;5.346;2023-07-13T09:23:21;11.57;;;2.25;;
25913;SDS011;13718;50.922;5.346;2023-07-13T09:25:49;12.07;;;2.30;;
25913;SDS011;13718;50.922;5.346;2023-07-13T09:28:24;8.43;;;2.17;;
25913;SDS011;13718;50.922;5.346;2023-07-13T09:33:29;12.27;;;2.97;;
25913;SDS011;13718;50.922;5.346;2023-07-13T09:35:58;8.60;;;2.03;;
25913;SDS011;13718;50.922;5.346;2023-07-13T09:38:25;13.88;;;2.50;;
25913;SDS011;13718;50.922;5.346;2023-07-13T09:44:15;12.65;;;2.53;;
25913;SDS011;13718;50.922;5.346;2023-07-13T09:46:46;10.63;;;2.00;;
25913;SDS011;13718;50.922;5.346;2023-07-13T09:49:17;10.48;;;1.95;;
25913;SDS011;13718;50.922;5.346;2023-07-13T09:51:44;9.88;;;1.95;;
25913;SDS011;13718;50.922;5.346;2023-07-13T09:54:43;7.00;;;1.67;;
25913;SDS011;13718;50.922;5.346;2023-07-13T09:57:03;10.07;;;2.17;;
25913;SDS011;13718;50.922;5.346;2023-07-13T09:59:40;9.48;;;1.80;;
25913;SDS011;13718;50.922;5.346;2023-07-13T10:05:09;14.00;;;2.60;;
25913;SDS011;13718;50.922;5.346;2023-07-13T10:07:40;12.27;;;2.33;;
25913;SDS011;13718;50.922;5.346;2023-07-13T10:10:16;10.40;;;1.90;;
25913;SDS011;13718;50.922;5.346;2023-07-13T10:12:45;8.15;;;1.80;;
25913;SDS011;13718;50.922;5.346;2023-07-13T10:15:15;7.18;;;1.85;;
25913;SDS011;13718;50.922;5.346;2023-07-13T10:17:43;10.57;;;1.67;;
25913;SDS011;13718;50.922;5.346;2023-07-13T10:20:09;8.73;;;1.73;;
25913;SDS011;13718;50.922;5.346;2023-07-13T10:22:58;10.50;;;1.98;;
25913;SDS011;13718;50.922;5.346;2023-07-13T10:25:28;8.25;;;1.60;;
25913;SDS011;13718;50.922;5.346;2023-07-13T10:28:04;6.60;;;1.75;;
25913;SDS011;13718;50.922;5.346;2023-07-13T10:30:46;7.93;;;1.65;;
25913;SDS011;13718;50.922;5.346;2023-07-13T10:33:13;7.97;;;1.70;;
25913;SDS011;13718;50.922;5.346;2023-07-13T10:35:40;5.97;;;1.75;;
25913;SDS011;13718;50.922;5.346;2023-07-13T10:38:17;7.03;;;1.58;;
25913;SDS011;13718;50.922;5.346;2023-07-13T10:40:58;7.55;;;1.90;;
25913;SDS011;13718;50.922;5.346;2023-07-13T10:43:37;8.10;;;1.60;;
25913;SDS011;13718;50.922;5.346;2023-07-13T10:46:08;14.40;;;1.90;;
25913;SDS011;13718;50.922;5.346;2023-07-13T10:48:38;7.30;;;1.60;;
25913;SDS011;13718;50.922;5.346;2023-07-13T10:51:05;10.93;;;1.85;;
25913;SDS011;13718;50.922;5.346;2023-07-13T11:04:38;9.45;;;1.77;;
25913;SDS011;13718;50.922;5.346;2023-07-13T11:07:10;7.60;;;1.92;;
25913;SDS011;13718;50.922;5.346;2023-07-13T11:09:51;9.75;;;1.77;;
25913;SDS011;13718;50.922;5.346;2023-07-13T11:19:53;12.93;;;1.73;;
25913;SDS011;13718;50.922;5.346;2023-07-13T11:22:41;10.95;;;1.80;;
25913;SDS011;13718;50.922;5.346;2023-07-13T11:25:28;8.60;;;1.50;;
25913;SDS011;13718;50.922;5.346;2023-07-13T11:33:28;10.20;;;1.77;;
25913;SDS011;13718;50.922;5.346;2023-07-13T11:38:49;8.00;;;1.73;;
25913;SDS011;13718;50.922;5.346;2023-07-13T11:41:20;7.28;;;1.80;;
25913;SDS011;13718;50.922;5.346;2023-07-13T11:43:50;5.80;;;1.30;;
25913;SDS011;13718;50.922;5.346;2023-07-13T11:46:22;7.60;;;1.40;;
25913;SDS011;13718;50.922;5.346;2023-07-13T11:48:50;6.82;;;1.77;;
25913;SDS011;13718;50.922;5.346;2023-07-13T11:51:22;7.55;;;1.70;;
25913;SDS011;13718;50.922;5.346;2023-07-13T11:53:52;8.90;;;1.52;;
25913;SDS011;13718;50.922;5.346;2023-07-13T11:56:19;4.57;;;1.45;;
25913;SDS011;13718;50.922;5.346;2023-07-13T11:58:48;4.88;;;1.35;;
25913;SDS011;13718;50.922;5.346;2023-07-13T12:01:17;7.03;;;1.90;;
25913;SDS011;13718;50.922;5.346;2023-07-13T12:03:49;6.25;;;1.50;;
25913;SDS011;13718;50.922;5.346;2023-07-13T12:06:32;6.13;;;1.67;;
25913;SDS011;13718;50.922;5.346;2023-07-13T12:09:03;5.03;;;1.38;;
25913;SDS011;13718;50.922;5.346;2023-07-13T12:11:39;6.03;;;1.45;;
25913;SDS011;13718;50.922;5.346;2023-07-13T12:14:12;6.75;;;1.73;;
25913;SDS011;13718;50.922;5.346;2023-07-13T12:16:40;4.93;;;1.40;;
25913;SDS011;13718;50.922;5.346;2023-07-13T12:19:09;8.95;;;1.75;;
25913;SDS011;13718;50.922;5.346;2023-07-13T12:21:45;7.38;;;1.92;;
25913;SDS011;13718;50.922;5.346;2023-07-13T12:24:15;6.07;;;1.75;;
25913;SDS011;13718;50.922;5.346;2023-07-13T12:26:42;6.30;;;1.48;;
25913;SDS011;13718;50.922;5.346;2023-07-13T12:29:11;6.85;;;1.30;;
25913;SDS011;13718;50.922;5.346;2023-07-13T12:31:42;6.35;;;1.20;;
25913;SDS011;13718;50.922;5.346;2023-07-13T12:36:59;5.70;;;1.40;;
25913;SDS011;13718;50.922;5.346;2023-07-13T12:42:00;8.35;;;1.50;;
25913;SDS011;13718;50.922;5.346;2023-07-13T12:47:49;6.43;;;1.60;;
25913;SDS011;13718;50.922;5.346;2023-07-13T12:50:22;8.20;;;1.53;;
25913;SDS011;13718;50.922;5.346;2023-07-13T12:52:53;5.18;;;1.60;;
25913;SDS011;13718;50.922;5.346;2023-07-13T12:55:23;7.65;;;1.45;;
25913;SDS011;13718;50.922;5.346;2023-07-13T12:57:50;5.30;;;1.40;;
25913;SDS011;13718;50.922;5.346;2023-07-13T13:00:21;3.78;;;1.05;;
25913;SDS011;13718;50.922;5.346;2023-07-13T13:02:50;6.38;;;1.50;;
25913;SDS011;13718;50.922;5.346;2023-07-13T13:05:22;6.80;;;1.17;;
25913;SDS011;13718;50.922;5.346;2023-07-13T13:07:51;4.63;;;1.30;;
25913;SDS011;13718;50.922;5.346;2023-07-13T13:10:17;4.50;;;1.25;;
25913;SDS011;13718;50.922;5.346;2023-07-13T13:12:43;6.05;;;1.48;;
25913;SDS011;13718;50.922;5.346;2023-07-13T13:15:09;9.43;;;1.30;;
25913;SDS011;13718;50.922;5.346;2023-07-13T13:17:36;3.80;;;1.27;;
25913;SDS011;13718;50.922;5.346;2023-07-13T13:20:16;6.95;;;1.30;;
25913;SDS011;13718;50.922;5.346;2023-07-13T13:22:44;6.38;;;1.30;;
25913;SDS011;13718;50.922;5.346;2023-07-13T13:25:10;5.03;;;1.55;;
25913;SDS011;13718;50.922;5.346;2023-07-13T13:27:37;5.28;;;1.20;;
25913;SDS011;13718;50.922;5.346;2023-07-13T13:30:17;5.75;;;1.38;;
25913;SDS011;13718;50.922;5.346;2023-07-13T13:32:44;14.50;;;2.20;;
25913;SDS011;13718;50.922;5.346;2023-07-13T13:35:18;7.93;;;2.00;;
25913;SDS011;13718;50.922;5.346;2023-07-13T13:37:45;7.72;;;1.60;;
25913;SDS011;13718;50.922;5.346;2023-07-13T13:40:16;4.80;;;1.40;;
25913;SDS011;13718;50.922;5.346;2023-07-13T13:42:44;5.93;;;1.58;;
25913;SDS011;13718;50.922;5.346;2023-07-13T13:45:10;5.93;;;1.63;;
25913;SDS011;13718;50.922;5.346;2023-07-13T13:47:37;6.03;;;1.20;;
25913;SDS011;13718;50.922;5.346;2023-07-13T13:50:17;5.15;;;1.35;;
25913;SDS011;13718;50.922;5.346;2023-07-13T13:52:49;5.18;;;1.60;;
25913;SDS011;13718;50.922;5.346;2023-07-13T13:55:18;5.32;;;1.27;;
25913;SDS011;13718;50.922;5.346;2023-07-13T13:57:45;5.65;;;1.60;;
25913;SDS011;13718;50.922;5.346;2023-07-13T14:00:12;4.68;;;1.50;;
25913;SDS011;13718;50.922;5.346;2023-07-13T14:02:39;5.00;;;1.42;;
25913;SDS011;13718;50.922;5.346;2023-07-13T14:05:09;5.63;;;1.58;;
25913;SDS011;13718;50.922;5.346;2023-07-13T14:07:37;4.90;;;1.80;;
25913;SDS011;13718;50.922;5.346;2023-07-13T14:10:08;4.65;;;1.60;;
25913;SDS011;13718;50.922;5.346;2023-07-13T14:12:40;3.85;;;1.60;;
25913;SDS011;13718;50.922;5.346;2023-07-13T14:15:26;4.88;;;1.58;;
25913;SDS011;13718;50.922;5.346;2023-07-13T14:17:53;4.45;;;1.60;;
25913;SDS011;13718;50.922;5.346;2023-07-13T14:20:20;3.90;;;1.50;;
25913;SDS011;13718;50.922;5.346;2023-07-13T14:22:49;5.50;;;1.60;;
25913;SDS011;13718;50.922;5.346;2023-07-13T14:25:16;4.97;;;1.63;;
25913;SDS011;13718;50.922;5.346;2023-07-13T14:27:43;6.07;;;1.77;;
25913;SDS011;13718;50.922;5.346;2023-07-13T14:30:14;4.13;;;1.67;;
25913;SDS011;13718;50.922;5.346;2023-07-13T14:32:42;6.35;;;1.95;;
25913;SDS011;13718;50.922;5.346;2023-07-13T14:35:10;3.80;;;1.52;;
25913;SDS011;13718;50.922;5.346;2023-07-13T14:37:40;6.28;;;1.80;;
25913;SDS011;13718;50.922;5.346;2023-07-13T14:42:38;6.80;;;1.80;;
25913;SDS011;13718;50.922;5.346;2023-07-13T14:45:04;5.70;;;1.42;;
25913;SDS011;13718;50.922;5.346;2023-07-13T14:47:30;6.20;;;1.50;;
25913;SDS011;13718;50.922;5.346;2023-07-13T14:49:56;4.05;;;1.63;;
25913;SDS011;13718;50.922;5.346;2023-07-13T14:52:23;4.85;;;1.65;;
25913;SDS011;13718;50.922;5.346;2023-07-13T14:54:49;3.92;;;1.42;;
25913;SDS011;13718;50.922;5.346;2023-07-13T14:57:16;4.07;;;1.52;;
25913;SDS011;13718;50.922;5.346;2023-07-13T14:59:43;4.75;;;1.55;;
25913;SDS011;13718;50.922;5.346;2023-07-13T15:04:39;4.35;;;1.35;;
25913;SDS011;13718;50.922;5.346;2023-07-13T15:07:05;6.70;;;1.50;;
25913;SDS011;13718;50.922;5.346;2023-07-13T15:09:34;3.90;;;1.50;;
25913;SDS011;13718;50.922;5.346;2023-07-13T15:12:00;3.33;;;1.23;;
25913;SDS011;13718;50.922;5.346;2023-07-13T15:14:26;4.30;;;1.58;;
25913;SDS011;13718;50.922;5.346;2023-07-13T15:16:53;3.70;;;1.30;;
25913;SDS011;13718;50.922;5.346;2023-07-13T15:19:21;3.15;;;1.20;;
25913;SDS011;13718;50.922;5.346;2023-07-13T15:21:48;4.03;;;1.40;;
25913;SDS011;13718;50.922;5.346;2023-07-13T15:24:15;7.20;;;1.80;;
25913;SDS011;13718;50.922;5.346;2023-07-13T15:26:41;4.15;;;1.40;;
25913;SDS011;13718;50.922;5.346;2023-07-13T15:29:10;5.45;;;1.33;;
25913;SDS011;13718;50.922;5.346;2023-07-13T15:31:36;4.57;;;1.33;;
25913;SDS011;13718;50.922;5.346;2023-07-13T15:34:04;4.13;;;1.48;;
25913;SDS011;13718;50.922;5.346;2023-07-13T15:36:39;5.85;;;1.30;;
25913;SDS011;13718;50.922;5.346;2023-07-13T15:39:05;3.45;;;1.27;;
25913;SDS011;13718;50.922;5.346;2023-07-13T15:41:31;3.97;;;1.60;;
25913;SDS011;13718;50.922;5.346;2023-07-13T15:43:58;6.80;;;1.50;;
25913;SDS011;13718;50.922;5.346;2023-07-13T15:46:26;5.78;;;1.58;;
25913;SDS011;13718;50.922;5.346;2023-07-13T15:48:53;3.67;;;1.33;;
25913;SDS011;13718;50.922;5.346;2023-07-13T15:51:28;6.38;;;1.92;;